Time;durP1;ratioP1;P1;durP2;ratioP2;P2;SDS_P1;SDS_P2;PMS_P1;PMS_P2;Temp;Humidity;BMP_temperature;BMP_pressure;BME280_temperature;BME280_humidity;BME280_pressure;Samples;Min_cycle;Max_cycle;Signal;HPM_P1;HPM_P2
2023/12/23 00:01:26;;;;;;;5.97;0.75;;;11.90;68.60;13.60;100728.00;;;;5029325;28;20206;-77
2023/12/23 00:03:53;;;;;;;4.38;0.73;;;11.90;68.60;13.60;100734.00;;;;5028224;28;20698;-78
2023/12/23 00:06:20;;;;;;;6.57;0.77;;;11.90;68.60;13.60;100730.00;;;;5029425;28;20196;-77
2023/12/23 00:08:47;;;;;;;4.53;0.63;;;12.00;68.60;13.60;100740.00;;;;5009545;28;20212;-77
2023/12/23 00:11:14;;;;;;;6.22;0.82;;;12.00;68.60;13.60;100738.00;;;;5010175;28;20192;-77
2023/12/23 00:13:42;;;;;;;3.13;0.65;;;12.00;68.60;13.60;100737.00;;;;5009523;28;20233;-77
2023/12/23 00:16:09;;;;;;;4.18;0.60;;;12.00;68.50;13.60;100737.00;;;;5008890;28;20201;-77
2023/12/23 00:18:36;;;;;;;4.50;0.80;;;12.00;68.50;13.60;100735.00;;;;5014960;28;20581;-78
2023/12/23 00:21:03;;;;;;;6.68;0.68;;;12.00;68.50;13.60;100728.00;;;;5009363;28;20208;-77
2023/12/23 00:23:30;;;;;;;3.60;1.05;;;12.00;68.60;13.70;100733.00;;;;5009022;28;20201;-77
2023/12/23 00:25:57;;;;;;;2.85;0.40;;;12.00;68.60;13.70;100722.00;;;;5009097;28;20207;-78
2023/12/23 00:28:24;;;;;;;3.63;0.80;;;12.00;68.60;13.70;100722.00;;;;5009470;28;20204;-78
2023/12/23 00:30:53;;;;;;;5.82;0.68;;;12.00;68.60;13.70;100716.00;;;;5024233;28;20211;-78
2023/12/23 00:33:19;;;;;;;3.55;0.90;;;12.00;68.60;13.70;100706.00;;;;5027987;28;20227;-78
2023/12/23 00:35:46;;;;;;;3.63;0.93;;;12.00;68.60;13.70;100706.00;;;;5028433;28;20208;-78
2023/12/23 00:38:13;;;;;;;6.13;0.70;;;12.00;68.60;13.70;100707.00;;;;5013755;28;20201;-78
2023/12/23 00:40:40;;;;;;;6.07;0.80;;;12.00;68.60;13.70;100709.00;;;;5022325;28;20240;-78
2023/12/23 00:43:07;;;;;;;4.35;0.35;;;12.00;68.60;13.70;100711.00;;;;5029098;28;20605;-78
2023/12/23 00:45:34;;;;;;;1.80;0.47;;;12.10;68.60;13.70;100717.00;;;;5021224;28;20562;-78
2023/12/23 00:48:03;;;;;;;2.58;0.70;;;12.00;68.50;13.70;100710.00;;;;5007246;28;21024;-78
2023/12/23 00:50:30;;;;;;;1.45;0.40;;;12.00;68.60;13.70;100708.00;;;;5010347;28;20209;-78
2023/12/23 00:52:59;;;;;;;6.55;0.80;;;12.00;68.50;13.70;100711.00;;;;5008787;28;20590;-78
2023/12/23 00:55:26;;;;;;;6.40;0.68;;;12.00;68.50;13.70;100714.00;;;;5007246;28;20201;-78
2023/12/23 00:57:52;;;;;;;3.75;0.40;;;12.00;68.60;13.70;100706.00;;;;5008521;28;20220;-78
2023/12/23 01:00:20;;;;;;;3.53;0.80;;;12.00;68.60;13.70;100707.00;;;;5011446;28;20219;-78
2023/12/23 01:02:47;;;;;;;4.57;0.60;;;12.00;68.60;13.70;100695.00;;;;5017210;28;20253;-78
2023/12/23 01:05:16;;;;;;;2.00;0.80;;;12.00;68.70;13.70;100700.00;;;;5006899;28;20206;-78
2023/12/23 01:07:43;;;;;;;5.13;0.80;;;12.00;68.80;13.80;100692.00;;;;5008191;28;20240;-77
2023/12/23 01:10:10;;;;;;;6.57;1.08;;;12.00;68.80;13.80;100698.00;;;;5007943;28;20197;-78
2023/12/23 01:12:37;;;;;;;3.63;0.70;;;12.00;68.80;13.80;100708.00;;;;5008011;28;21081;-78
2023/12/23 01:15:07;;;;;;;5.75;0.50;;;12.10;68.90;13.80;100699.00;;;;5006930;28;20231;-77
2023/12/23 01:17:34;;;;;;;3.90;0.57;;;12.10;68.90;13.80;100692.00;;;;5007244;28;20193;-78
2023/12/23 01:20:01;;;;;;;2.30;0.30;;;12.10;68.90;13.80;100682.00;;;;5008467;28;20208;-77
2023/12/23 01:22:29;;;;;;;3.20;0.52;;;12.10;68.90;13.80;100679.00;;;;5009109;28;20205;-77
2023/12/23 01:24:56;;;;;;;4.95;0.75;;;12.10;68.90;13.80;100670.00;;;;5008316;28;20659;-77
2023/12/23 01:27:23;;;;;;;5.43;0.90;;;12.10;68.90;13.80;100661.00;;;;5007767;28;20216;-77
2023/12/23 01:29:50;;;;;;;3.38;0.60;;;12.10;69.00;13.90;100679.00;;;;5015115;28;20202;-77
2023/12/23 01:32:17;;;;;;;1.75;0.40;;;12.10;69.00;13.90;100669.00;;;;5021471;28;20658;-77
2023/12/23 01:34:45;;;;;;;2.90;0.43;;;12.10;69.00;13.90;100654.00;;;;5016070;28;21115;-78
2023/12/23 01:37:12;;;;;;;3.35;0.47;;;12.10;69.10;13.90;100650.00;;;;5007790;28;20201;-78
2023/12/23 01:39:40;;;;;;;3.65;0.40;;;12.10;69.10;13.90;100650.00;;;;5008267;28;20681;-78
2023/12/23 01:42:07;;;;;;;4.35;0.40;;;12.20;69.10;13.90;100654.00;;;;5007658;28;20579;-77
2023/12/23 01:44:34;;;;;;;3.58;0.75;;;12.20;69.20;13.90;100657.00;;;;5008486;28;20205;-78
2023/12/23 01:47:04;;;;;;;2.15;0.68;;;12.20;69.20;13.90;100653.00;;;;5007098;28;20200;-78
2023/12/23 01:49:32;;;;;;;2.40;0.47;;;12.20;69.30;13.90;100649.00;;;;5008617;28;20196;-78
2023/12/23 01:52:00;;;;;;;4.88;0.40;;;12.20;69.20;13.90;100636.00;;;;5023760;28;20200;-79
2023/12/23 01:54:28;;;;;;;3.13;0.90;;;12.20;69.20;13.90;100634.00;;;;5015034;28;20615;-78
2023/12/23 01:56:56;;;;;;;3.13;0.85;;;12.20;69.20;13.90;100643.00;;;;5006743;28;20208;-78
2023/12/23 01:59:23;;;;;;;2.20;0.40;;;12.20;69.30;13.90;100638.00;;;;5008747;28;20197;-79
2023/12/23 02:01:52;;;;;;;2.80;0.45;;;12.20;69.30;13.90;100647.00;;;;5008043;28;20232;-78
2023/12/23 02:04:19;;;;;;;4.03;0.32;;;12.20;69.30;13.90;100623.00;;;;5006368;28;20201;-78
2023/12/23 02:06:46;;;;;;;3.20;0.52;;;12.20;69.40;13.90;100629.00;;;;5006607;28;20197;-78
2023/12/23 02:09:13;;;;;;;3.17;0.57;;;12.20;69.40;13.90;100623.00;;;;5008858;28;20224;-78
2023/12/23 02:11:55;;;;;;;2.70;0.50;;;12.20;69.50;13.80;100616.00;;;;5008439;28;20205;-78
2023/12/23 02:14:36;;;;;;;1.48;0.20;;;12.20;69.50;13.80;100615.00;;;;5009813;28;20730;-79
2023/12/23 02:17:03;;;;;;;2.53;1.05;;;12.20;69.60;13.90;100606.00;;;;4998578;28;20209;-78
2023/12/23 02:19:30;;;;;;;3.25;0.50;;;12.20;69.50;13.90;100610.00;;;;5028385;28;20203;-78
2023/12/23 02:21:58;;;;;;;1.60;0.52;;;12.20;69.60;13.90;100603.00;;;;5028550;28;20204;-79
2023/12/23 02:24:26;;;;;;;1.65;0.30;;;12.20;69.70;13.90;100588.00;;;;5000178;28;20205;-77
2023/12/23 02:27:04;;;;;;;1.33;0.50;;;12.20;69.70;13.90;100579.00;;;;5007233;28;20197;-78
2023/12/23 02:29:32;;;;;;;3.13;0.70;;;12.20;69.80;13.90;100580.00;;;;5011758;28;20196;-79
2023/12/23 02:32:02;;;;;;;1.88;0.68;;;12.30;69.90;13.90;100577.00;;;;5016247;28;20200;-78
2023/12/23 02:34:31;;;;;;;4.15;1.00;;;12.30;70.00;13.90;100582.00;;;;5013718;28;20228;-78
2023/12/23 02:36:59;;;;;;;1.15;0.60;;;12.30;70.10;13.90;100587.00;;;;5011491;28;20197;-78
2023/12/23 02:39:26;;;;;;;5.45;1.65;;;12.30;70.30;13.90;100579.00;;;;5011700;28;20208;-78
2023/12/23 02:41:53;;;;;;;3.50;0.98;;;12.30;70.40;13.90;100575.00;;;;5010570;28;20247;-78
2023/12/23 02:44:20;;;;;;;3.90;0.82;;;12.30;70.60;14.00;100581.00;;;;5009826;28;20204;-78
2023/12/23 02:46:47;;;;;;;4.35;0.95;;;12.40;70.70;14.00;100574.00;;;;5010163;28;20201;-78
2023/12/23 02:49:14;;;;;;;6.25;1.05;;;12.40;70.80;14.00;100568.00;;;;5010533;28;20578;-78
2023/12/23 02:51:41;;;;;;;5.28;1.35;;;12.40;70.90;14.00;100564.00;;;;5010772;28;20197;-78
2023/12/23 02:54:09;;;;;;;3.72;1.80;;;12.50;71.10;14.00;100561.00;;;;5010922;28;20231;-78
2023/12/23 02:56:36;;;;;;;4.78;1.10;;;12.50;71.20;14.00;100557.00;;;;5010446;28;20211;-78
2023/12/23 02:59:03;;;;;;;4.30;1.17;;;12.50;71.20;14.10;100543.00;;;;5009774;28;20682;-78
2023/12/23 03:01:30;;;;;;;4.95;0.95;;;12.50;71.30;14.10;100544.00;;;;5011495;28;20582;-79
2023/12/23 03:03:57;;;;;;;5.20;1.40;;;12.60;71.30;14.10;100537.00;;;;5010551;28;20220;-78
2023/12/23 03:06:24;;;;;;;4.93;1.15;;;12.60;71.30;14.20;100542.00;;;;5010956;28;20982;-78
2023/12/23 03:08:51;;;;;;;4.78;1.30;;;12.70;71.40;14.20;100539.00;;;;5009191;28;20201;-78
2023/12/23 03:11:19;;;;;;;4.28;1.33;;;12.70;71.30;14.20;100529.00;;;;5011050;28;20571;-78
2023/12/23 03:13:46;;;;;;;3.15;0.60;;;12.70;71.20;14.20;100525.00;;;;5008654;28;20197;-78
2023/12/23 03:16:17;;;;;;;5.25;1.00;;;12.70;71.30;14.20;100520.00;;;;5011669;28;20201;-78
2023/12/23 03:18:44;;;;;;;3.58;1.20;;;12.80;71.40;14.30;100518.00;;;;5009612;28;20209;-78
2023/12/23 03:21:12;;;;;;;3.30;0.98;;;12.80;71.30;14.30;100519.00;;;;5007733;28;20216;-78
2023/12/23 03:23:39;;;;;;;5.43;1.25;;;12.80;71.20;14.30;100515.00;;;;5015224;28;20235;-78
2023/12/23 03:26:07;;;;;;;5.55;1.23;;;12.80;71.30;14.30;100507.00;;;;5009729;28;20196;-78
2023/12/23 03:28:36;;;;;;;4.10;1.38;;;12.90;71.30;14.30;100506.00;;;;5009146;28;20655;-77
2023/12/23 03:31:03;;;;;;;5.85;1.00;;;12.90;71.20;14.30;100509.00;;;;5022621;28;20216;-78
2023/12/23 03:33:30;;;;;;;2.83;0.80;;;12.90;71.20;14.40;100503.00;;;;5019973;28;20204;-78
2023/12/23 03:35:59;;;;;;;5.78;1.45;;;13.00;71.30;14.40;100508.00;;;;5009842;28;20714;-78
2023/12/23 03:38:26;;;;;;;6.88;1.08;;;13.00;71.20;14.40;100513.00;;;;5009180;28;20687;-78
2023/12/23 03:40:53;;;;;;;4.68;0.95;;;13.00;71.10;14.40;100484.00;;;;5009330;28;20236;-78
2023/12/23 03:43:20;;;;;;;3.42;0.90;;;13.00;71.00;14.40;100495.00;;;;5017460;28;20205;-78
2023/12/23 03:45:48;;;;;;;6.05;1.27;;;13.00;71.00;14.40;100485.00;;;;5009389;28;20197;-78
2023/12/23 03:48:15;;;;;;;3.75;0.77;;;13.00;70.80;14.50;100491.00;;;;5008241;28;20205;-77
2023/12/23 03:50:42;;;;;;;5.05;0.82;;;13.10;70.80;14.50;100497.00;;;;5009641;28;20204;-77
2023/12/23 03:53:09;;;;;;;5.30;1.05;;;13.10;70.80;14.50;100490.00;;;;5009873;28;20207;-77
2023/12/23 03:55:39;;;;;;;3.67;1.08;;;13.10;70.70;14.50;100487.00;;;;5009617;28;20304;-77
2023/12/23 03:58:05;;;;;;;5.90;0.82;;;13.10;70.60;14.60;100487.00;;;;5007588;28;20204;-77
2023/12/23 04:00:32;;;;;;;5.43;0.80;;;13.20;70.60;14.60;100478.00;;;;5009432;28;20200;-77
2023/12/23 04:03:01;;;;;;;6.32;1.02;;;13.20;70.60;14.60;100470.00;;;;5023073;28;20228;-77
2023/12/23 04:05:28;;;;;;;5.28;1.35;;;13.20;70.50;14.60;100474.00;;;;5009955;28;20207;-77
2023/12/23 04:07:55;;;;;;;5.80;1.60;;;13.20;70.40;14.60;100479.00;;;;5008342;28;20212;-77
2023/12/23 04:10:22;;;;;;;5.25;1.27;;;13.20;70.40;14.70;100462.00;;;;5009513;28;20196;-77
2023/12/23 04:12:48;;;;;;;3.50;1.00;;;13.30;70.40;14.70;100464.00;;;;5008907;28;20224;-77
2023/12/23 04:15:16;;;;;;;8.07;2.75;;;13.30;70.30;14.70;100461.00;;;;5009460;28;20224;-77
2023/12/23 04:17:43;;;;;;;3.42;0.90;;;13.30;70.20;14.70;100452.00;;;;5008603;28;20285;-77
2023/12/23 04:20:12;;;;;;;4.90;0.95;;;13.30;70.20;14.70;100460.00;;;;5010181;28;20663;-77
2023/12/23 04:22:40;;;;;;;5.38;1.02;;;13.30;70.20;14.70;100476.00;;;;5015664;28;20205;-76
2023/12/23 04:25:07;;;;;;;4.18;1.05;;;13.40;70.10;14.70;100458.00;;;;5009029;28;20651;-77
2023/12/23 04:27:34;;;;;;;2.65;1.15;;;13.40;70.10;14.70;100466.00;;;;5008352;28;20197;-77
2023/12/23 04:30:01;;;;;;;4.47;1.02;;;13.40;70.00;14.80;100461.00;;;;5008761;28;20208;-77
2023/12/23 04:32:28;;;;;;;4.03;0.90;;;13.40;70.00;14.80;100445.00;;;;5008256;28;20297;-77
2023/12/23 04:34:56;;;;;;;4.13;0.90;;;13.40;69.80;14.80;100465.00;;;;5005361;28;20233;-77
2023/12/23 04:37:25;;;;;;;7.05;0.95;;;13.40;69.80;14.70;100456.00;;;;4990780;28;20251;-77
2023/12/23 04:39:53;;;;;;;6.15;1.25;;;13.40;69.80;14.80;100459.00;;;;4999558;28;20209;-77
2023/12/23 04:42:20;;;;;;;4.00;1.30;;;13.40;69.80;14.80;100443.00;;;;5006411;28;20631;-77
2023/12/23 04:44:47;;;;;;;7.15;1.17;;;13.40;69.70;14.80;100461.00;;;;5008512;28;20555;-76
2023/12/23 04:47:14;;;;;;;6.72;1.05;;;13.40;69.60;14.80;100448.00;;;;5008673;28;20201;-77
2023/12/23 04:49:41;;;;;;;4.03;1.27;;;13.50;69.70;14.80;100446.00;;;;5011487;28;20208;-77
2023/12/23 04:52:08;;;;;;;7.63;1.23;;;13.50;69.60;14.80;100447.00;;;;5007689;28;20204;-77
2023/12/23 04:54:36;;;;;;;5.85;1.13;;;13.50;69.50;14.80;100437.00;;;;4996507;28;20225;-77
2023/12/23 04:57:03;;;;;;;5.00;0.90;;;13.50;69.40;14.80;100435.00;;;;5000003;28;20201;-77
2023/12/23 04:59:30;;;;;;;4.50;1.20;;;13.50;69.40;14.90;100439.00;;;;5008444;28;20189;-77
2023/12/23 05:01:57;;;;;;;3.53;0.77;;;13.50;69.40;14.90;100430.00;;;;5008038;28;20220;-77
2023/12/23 05:04:24;;;;;;;5.32;1.58;;;13.50;69.40;14.90;100426.00;;;;5008185;28;21038;-77
2023/12/23 05:06:51;;;;;;;6.43;1.70;;;13.60;69.40;14.90;100442.00;;;;5008273;28;20220;-77
2023/12/23 05:09:18;;;;;;;5.82;1.30;;;13.50;69.20;14.90;100442.00;;;;5018194;28;20201;-77
2023/12/23 05:11:46;;;;;;;4.65;1.05;;;13.50;69.10;14.90;100431.00;;;;5007119;28;20668;-77
2023/12/23 05:14:13;;;;;;;5.25;1.52;;;13.60;69.20;14.90;100434.00;;;;5008495;28;20200;-77
2023/12/23 05:16:40;;;;;;;8.50;1.08;;;13.60;69.10;15.00;100428.00;;;;5008372;28;20690;-77
2023/12/23 05:19:07;;;;;;;3.72;1.02;;;13.60;69.10;15.00;100421.00;;;;5006719;28;20220;-77
2023/12/23 05:21:33;;;;;;;5.72;1.60;;;13.60;69.10;15.00;100431.00;;;;5008439;28;20204;-77
2023/12/23 05:24:00;;;;;;;4.63;0.93;;;13.60;68.90;15.00;100436.00;;;;5007624;28;20197;-77
2023/12/23 05:26:27;;;;;;;5.53;1.00;;;13.60;68.90;15.00;100415.00;;;;5008601;28;20212;-77
2023/12/23 05:28:56;;;;;;;3.67;1.30;;;13.60;69.00;15.00;100431.00;;;;5011724;28;20206;-77
2023/12/23 05:31:22;;;;;;;4.63;0.90;;;13.60;68.90;15.00;100434.00;;;;5008383;28;20209;-77
2023/12/23 05:33:54;;;;;;;7.60;1.42;;;13.70;68.70;15.00;100430.00;;;;5007414;28;20570;-77
2023/12/23 05:36:21;;;;;;;2.40;0.80;;;13.70;68.70;15.00;100441.00;;;;5007822;28;20235;-77
2023/12/23 05:38:49;;;;;;;5.35;1.00;;;13.70;68.90;15.00;100424.00;;;;5006098;28;20212;-76
2023/12/23 05:41:16;;;;;;;2.95;0.90;;;13.70;68.90;15.00;100425.00;;;;5008097;28;20319;-77
2023/12/23 05:43:43;;;;;;;9.40;1.25;;;13.70;68.80;15.00;100434.00;;;;5007171;28;20578;-77
2023/12/23 05:46:11;;;;;;;4.30;0.75;;;13.70;68.70;15.00;100417.00;;;;5020030;28;20219;-77
2023/12/23 05:48:38;;;;;;;5.75;1.27;;;13.60;68.70;15.00;100423.00;;;;5023641;28;20225;-77
2023/12/23 05:51:08;;;;;;;5.38;1.20;;;13.60;68.70;15.00;100413.00;;;;5008019;28;20193;-77
2023/12/23 05:53:35;;;;;;;4.78;1.20;;;13.70;68.80;15.00;100416.00;;;;5003890;28;20194;-77
2023/12/23 05:56:05;;;;;;;6.50;1.23;;;13.70;68.80;15.00;100421.00;;;;4994614;28;20727;-77
2023/12/23 05:58:32;;;;;;;4.90;0.95;;;13.60;68.70;15.00;100426.00;;;;5008135;28;20224;-77
2023/12/23 06:00:59;;;;;;;5.28;1.75;;;13.70;68.80;15.00;100424.00;;;;5007022;28;20671;-77
2023/12/23 06:03:27;;;;;;;4.20;1.35;;;13.60;68.70;14.90;100422.00;;;;5012764;28;20204;-76
2023/12/23 06:05:54;;;;;;;6.28;1.02;;;13.60;68.80;14.90;100426.00;;;;5020475;28;20200;-77
2023/12/23 06:08:21;;;;;;;3.90;0.98;;;13.60;68.80;14.90;100411.00;;;;5011960;28;20208;-76
2023/12/23 06:10:48;;;;;;;7.00;1.27;;;13.60;68.80;14.90;100412.00;;;;5011003;28;20201;-76
2023/12/23 06:13:15;;;;;;;6.22;1.05;;;13.60;68.80;14.90;100414.00;;;;5012380;28;20205;-76
2023/12/23 06:15:42;;;;;;;5.35;1.10;;;13.60;68.90;14.80;100421.00;;;;5011260;28;20604;-77
2023/12/23 06:18:09;;;;;;;5.80;1.00;;;13.60;68.90;14.80;100399.00;;;;5012779;28;20197;-77
2023/12/23 06:20:38;;;;;;;8.40;1.17;;;13.60;69.00;14.80;100413.00;;;;5011159;28;20596;-77
2023/12/23 06:23:05;;;;;;;8.23;1.55;;;13.50;69.40;14.80;100426.00;;;;5010277;28;20209;-77
2023/12/23 06:25:32;;;;;;;7.10;1.25;;;13.50;69.00;14.80;100419.00;;;;5009438;28;20486;-76
2023/12/23 06:27:59;;;;;;;5.22;1.05;;;13.50;69.10;14.80;100408.00;;;;5013496;28;20220;-76
2023/12/23 06:30:26;;;;;;;11.57;1.70;;;13.50;69.10;14.80;100406.00;;;;5011693;28;20220;-76
2023/12/23 06:32:53;;;;;;;3.47;1.33;;;13.50;69.10;14.80;100433.00;;;;5010886;28;20215;-76
2023/12/23 06:35:21;;;;;;;4.65;1.42;;;13.50;69.10;14.80;100426.00;;;;5011493;28;20224;-76
2023/12/23 06:37:49;;;;;;;5.80;1.20;;;13.50;69.20;14.80;100418.00;;;;5018133;28;20200;-76
2023/12/23 06:40:16;;;;;;;9.57;1.20;;;13.50;69.20;14.80;100399.00;;;;5017929;28;20201;-76
2023/12/23 06:42:43;;;;;;;6.50;1.60;;;13.50;69.30;14.80;100396.00;;;;5011125;28;20197;-76
2023/12/23 06:45:13;;;;;;;8.30;1.23;;;13.50;69.30;14.80;100410.00;;;;5010232;28;20201;-77
2023/12/23 06:47:40;;;;;;;4.57;1.25;;;13.50;69.30;14.80;100399.00;;;;5010988;28;20201;-77
2023/12/23 06:50:08;;;;;;;6.18;1.02;;;13.50;69.30;14.80;100401.00;;;;5008762;28;20201;-75
2023/12/23 06:52:35;;;;;;;3.42;0.77;;;13.50;69.40;14.80;100418.00;;;;5009415;28;20193;-75
2023/12/23 06:55:04;;;;;;;4.40;1.00;;;13.50;69.30;14.80;100402.00;;;;5010309;28;20364;-75
2023/12/23 06:57:31;;;;;;;5.70;1.20;;;13.50;69.40;14.90;100414.00;;;;5009648;28;20213;-75
2023/12/23 06:59:59;;;;;;;9.68;1.95;;;13.50;69.40;14.90;100408.00;;;;5009208;28;20201;-75
2023/12/23 07:02:26;;;;;;;4.22;1.00;;;13.60;69.40;14.90;100401.00;;;;5010560;28;20275;-75
2023/12/23 07:04:53;;;;;;;7.18;1.33;;;13.60;69.50;14.90;100401.00;;;;5011277;28;20201;-75
2023/12/23 07:07:20;;;;;;;8.70;1.60;;;13.60;69.40;15.00;100405.00;;;;5015678;28;20219;-76
2023/12/23 07:09:47;;;;;;;4.95;1.00;;;13.60;69.30;15.00;100388.00;;;;5013549;28;20289;-75
2023/12/23 07:12:15;;;;;;;5.35;1.17;;;13.60;69.30;15.00;100415.00;;;;5011062;28;20199;-75
2023/12/23 07:14:42;;;;;;;5.30;1.05;;;13.60;69.30;15.00;100405.00;;;;5011222;28;20197;-75
2023/12/23 07:17:09;;;;;;;9.85;1.65;;;13.60;69.20;15.00;100409.00;;;;5013416;28;20780;-76
2023/12/23 07:19:36;;;;;;;9.52;1.25;;;13.70;69.30;15.10;100416.00;;;;5014630;28;20196;-78
2023/12/23 07:22:03;;;;;;;4.28;1.30;;;13.70;69.20;15.10;100425.00;;;;5010609;28;20212;-76
2023/12/23 07:24:30;;;;;;;8.70;1.45;;;13.70;69.10;15.10;100429.00;;;;5011174;28;20263;-76
2023/12/23 07:26:57;;;;;;;5.38;1.48;;;13.70;69.10;15.10;100435.00;;;;5011081;28;20204;-76
2023/12/23 07:29:26;;;;;;;3.97;0.90;;;13.70;69.10;15.10;100435.00;;;;5017774;28;20203;-76
2023/12/23 07:31:53;;;;;;;9.95;1.70;;;13.80;69.10;15.20;100444.00;;;;5010713;28;20282;-76
2023/12/23 07:34:19;;;;;;;4.55;1.42;;;13.80;68.80;15.20;100435.00;;;;4995988;28;20547;-76
2023/12/23 07:36:47;;;;;;;9.95;1.70;;;13.80;68.90;15.20;100443.00;;;;4995462;28;20232;-76
2023/12/23 07:39:14;;;;;;;7.95;1.02;;;13.90;69.00;15.20;100434.00;;;;5016038;28;20244;-75
2023/12/23 07:41:41;;;;;;;19.17;1.48;;;13.80;68.80;15.20;100440.00;;;;5008460;28;20237;-76
2023/12/23 07:44:08;;;;;;;5.63;1.17;;;13.90;68.90;15.20;100431.00;;;;5010722;28;20209;-76
2023/12/23 07:46:37;;;;;;;5.43;0.93;;;13.90;68.80;15.30;100436.00;;;;5010257;28;20193;-76
2023/12/23 07:49:04;;;;;;;6.93;1.00;;;13.90;68.70;15.30;100453.00;;;;5015523;28;20204;-76
2023/12/23 07:51:30;;;;;;;5.20;1.38;;;13.90;68.60;15.30;100435.00;;;;5008928;28;20208;-76
2023/12/23 07:53:57;;;;;;;6.63;1.40;;;13.90;68.50;15.30;100440.00;;;;5007345;28;20200;-76
2023/12/23 07:56:25;;;;;;;7.93;1.17;;;14.00;68.30;15.30;100441.00;;;;5009843;28;20749;-75
2023/12/23 07:58:52;;;;;;;7.78;1.40;;;14.00;68.30;15.40;100441.00;;;;5009714;28;20193;-75
2023/12/23 08:01:20;;;;;;;6.70;1.83;;;14.00;68.30;15.40;100443.00;;;;5009309;28;20205;-75
2023/12/23 08:03:48;;;;;;;7.20;1.45;;;14.00;68.20;15.30;100432.00;;;;5011756;28;20318;-75
2023/12/23 08:06:16;;;;;;;7.03;1.75;;;14.00;67.90;15.40;100446.00;;;;5008183;28;20200;-76
2023/12/23 08:08:43;;;;;;;7.03;1.10;;;14.00;68.10;15.40;100447.00;;;;5007147;28;20197;-75
2023/12/23 08:11:10;;;;;;;4.05;1.10;;;14.10;68.00;15.40;100449.00;;;;5009867;28;20205;-76
2023/12/23 08:13:37;;;;;;;6.38;1.13;;;14.10;68.10;15.40;100445.00;;;;5017250;28;20207;-76
2023/12/23 08:16:05;;;;;;;5.45;1.33;;;14.10;68.70;15.40;100449.00;;;;5029942;28;20224;-76
2023/12/23 08:18:32;;;;;;;6.78;1.10;;;14.10;67.90;15.40;100459.00;;;;5025130;28;20208;-77
2023/12/23 08:21:03;;;;;;;8.30;1.80;;;14.10;67.90;15.40;100434.00;;;;5019812;28;20682;-76
2023/12/23 08:23:30;;;;;;;4.55;1.00;;;14.10;67.50;15.40;100443.00;;;;5008957;28;20220;-76
2023/12/23 08:25:57;;;;;;;4.50;1.50;;;14.20;67.80;15.50;100446.00;;;;5007867;28;20208;-76
2023/12/23 08:28:24;;;;;;;5.45;1.10;;;14.10;67.60;15.50;100456.00;;;;5007541;28;20208;-76
2023/12/23 08:30:51;;;;;;;3.75;0.90;;;14.20;67.80;15.50;100458.00;;;;5024479;28;20208;-76
2023/12/23 08:33:18;;;;;;;5.32;1.27;;;14.20;67.90;15.50;100460.00;;;;5018839;28;20198;-76
2023/12/23 08:35:45;;;;;;;5.93;1.60;;;14.20;67.70;15.50;100455.00;;;;5019872;28;20589;-75
2023/12/23 08:38:13;;;;;;;7.05;1.27;;;14.20;67.70;15.50;100468.00;;;;5009436;28;20213;-76
2023/12/23 08:40:40;;;;;;;4.07;0.98;;;14.20;67.70;15.50;100450.00;;;;5006753;28;20233;-76
2023/12/23 08:43:07;;;;;;;6.25;1.20;;;14.20;67.40;15.50;100441.00;;;;5015040;28;20200;-76
2023/12/23 08:45:34;;;;;;;5.00;1.10;;;14.20;67.40;15.60;100451.00;;;;5020161;28;20677;-77
2023/12/23 08:48:01;;;;;;;7.35;1.23;;;14.30;67.40;15.60;100459.00;;;;5008345;28;20200;-75
2023/12/23 08:50:28;;;;;;;3.53;0.63;;;14.30;67.50;15.60;100457.00;;;;5009644;28;20200;-76
2023/12/23 08:52:55;;;;;;;5.53;1.23;;;14.30;67.40;15.60;100466.00;;;;5011771;28;20204;-75
2023/12/23 08:55:23;;;;;;;5.18;0.80;;;14.30;67.20;15.60;100471.00;;;;5006585;28;20197;-75
2023/12/23 08:57:50;;;;;;;6.82;1.38;;;14.30;67.20;15.60;100475.00;;;;5006608;28;20200;-75
2023/12/23 09:00:18;;;;;;;4.75;0.60;;;14.30;67.30;15.60;100480.00;;;;5011670;28;20200;-75
2023/12/23 09:02:45;;;;;;;5.68;1.27;;;14.40;67.40;15.60;100482.00;;;;5009884;28;20221;-75
2023/12/23 09:05:12;;;;;;;4.28;0.88;;;14.40;67.40;15.60;100470.00;;;;5006281;28;20205;-76
2023/12/23 09:07:39;;;;;;;4.03;0.98;;;14.40;67.40;15.60;100483.00;;;;5007397;28;20204;-76
2023/12/23 09:10:08;;;;;;;7.88;1.20;;;14.40;67.30;15.70;100486.00;;;;5007530;28;20201;-75
2023/12/23 09:12:38;;;;;;;6.72;0.93;;;14.40;67.40;15.60;100495.00;;;;5002632;28;20196;-77
2023/12/23 09:15:06;;;;;;;6.20;1.48;;;14.40;67.20;15.70;100495.00;;;;5004500;28;20208;-77
2023/12/23 09:17:34;;;;;;;2.95;0.80;;;14.40;67.00;15.60;100480.00;;;;5005330;28;20228;-76
2023/12/23 09:20:04;;;;;;;5.22;1.50;;;14.40;67.40;15.70;100482.00;;;;5013275;28;20197;-75
2023/12/23 09:22:31;;;;;;;3.03;1.02;;;14.40;67.20;15.70;100499.00;;;;5007369;28;20633;-76
2023/12/23 09:24:58;;;;;;;8.82;1.58;;;14.40;67.20;15.70;100490.00;;;;5007449;28;21022;-76
2023/12/23 09:27:25;;;;;;;4.60;0.88;;;14.40;67.10;15.70;100513.00;;;;5014560;28;20213;-75
2023/12/23 09:29:55;;;;;;;4.03;0.85;;;14.40;67.20;15.70;100507.00;;;;5008121;28;20215;-76
2023/12/23 09:32:23;;;;;;;4.18;0.88;;;14.40;67.10;15.70;100512.00;;;;4999042;28;21269;-75
2023/12/23 09:34:52;;;;;;;3.00;0.88;;;14.40;67.90;15.70;100518.00;;;;5006453;28;20566;-75
2023/12/23 09:37:19;;;;;;;5.45;1.17;;;14.40;67.20;15.70;100518.00;;;;5007945;28;20220;-75
2023/12/23 09:39:46;;;;;;;2.80;1.00;;;14.40;67.20;15.70;100498.00;;;;5005111;28;20201;-76
2023/12/23 09:42:13;;;;;;;5.78;1.08;;;14.40;67.10;15.70;100497.00;;;;5006593;28;20236;-75
2023/12/23 09:44:40;;;;;;;7.22;1.17;;;14.40;67.10;15.80;100518.00;;;;5005667;28;20202;-75
2023/12/23 09:47:09;;;;;;;5.22;0.85;;;14.40;67.20;15.70;100497.00;;;;5005603;28;20682;-76
2023/12/23 09:49:36;;;;;;;5.65;1.20;;;14.40;67.10;15.80;100505.00;;;;5004664;28;20693;-75
2023/12/23 09:52:04;;;;;;;8.68;1.50;;;14.40;67.10;15.70;100516.00;;;;5009408;28;20208;-76
2023/12/23 09:54:38;;;;;;;5.97;1.13;;;14.50;67.60;15.70;100520.00;;;;5015418;28;20560;-76
2023/12/23 09:57:07;;;;;;;5.03;1.33;;;14.40;67.60;15.70;100515.00;;;;5025316;28;20759;-76
2023/12/23 09:59:34;;;;;;;5.13;1.25;;;14.40;66.80;15.70;100524.00;;;;5011218;28;20207;-76
2023/12/23 10:02:01;;;;;;;5.35;1.30;;;14.50;67.00;15.80;100523.00;;;;5003623;28;20197;-76
2023/12/23 10:04:31;;;;;;;5.75;1.00;;;14.50;66.80;15.70;100514.00;;;;5004755;28;20591;-76
2023/12/23 10:06:58;;;;;;;7.00;1.27;;;14.40;66.80;15.80;100520.00;;;;5007891;28;20204;-76
2023/12/23 10:09:30;;;;;;;9.13;1.27;;;14.40;66.90;15.70;100512.00;;;;5007075;28;20281;-76
2023/12/23 10:11:57;;;;;;;4.53;1.08;;;14.50;66.80;15.80;100510.00;;;;5019792;28;20207;-76
2023/12/23 10:14:25;;;;;;;7.93;0.90;;;14.50;66.80;15.80;100538.00;;;;5006766;28;20208;-76
2023/12/23 10:16:53;;;;;;;3.55;1.17;;;14.50;66.80;15.80;100515.00;;;;5006062;28;20344;-76
2023/12/23 10:19:20;;;;;;;4.13;0.80;;;14.50;66.60;15.80;100518.00;;;;5006551;28;20610;-76
2023/12/23 10:21:49;;;;;;;4.45;0.85;;;14.50;66.80;15.80;100506.00;;;;5006788;28;20197;-76
2023/12/23 10:24:16;;;;;;;6.65;1.58;;;14.50;66.80;15.80;100524.00;;;;5008393;28;20216;-76
2023/12/23 10:26:44;;;;;;;5.25;1.25;;;14.50;66.50;15.80;100505.00;;;;5007916;28;20212;-77
2023/12/23 10:29:15;;;;;;;6.13;1.40;;;14.50;66.60;15.80;100521.00;;;;5006928;28;20263;-76
2023/12/23 10:31:47;;;;;;;3.40;1.15;;;14.60;66.50;15.80;100511.00;;;;5006689;28;20302;-76
2023/12/23 10:34:21;;;;;;;6.75;1.23;;;14.60;67.30;15.80;100517.00;;;;5007409;28;20201;-76
2023/12/23 10:36:53;;;;;;;4.22;1.13;;;14.60;66.50;15.80;100516.00;;;;4987802;28;20243;-75
2023/12/23 10:39:28;;;;;;;4.03;1.00;;;14.60;66.50;15.80;100528.00;;;;4994773;28;20216;-76
2023/12/23 10:42:02;;;;;;;6.18;1.10;;;14.60;66.50;15.90;100495.00;;;;5012516;28;20240;-76
2023/12/23 10:44:32;;;;;;;5.28;1.00;;;14.60;66.40;15.90;100510.00;;;;4996569;28;20244;-76
2023/12/23 10:47:00;;;;;;;3.92;0.90;;;14.60;66.40;15.90;100519.00;;;;5024317;28;20722;-76
2023/12/23 10:49:29;;;;;;;3.55;1.02;;;14.60;66.40;15.90;100518.00;;;;5029964;28;20243;-76